Time;durP1;ratioP1;P1;durP2;ratioP2;P2;SDS_P1;SDS_P2;PMS_P1;PMS_P2;Temp;Humidity;BMP_temperature;BMP_pressure;BME280_temperature;BME280_humidity;BME280_pressure;Samples;Min_cycle;Max_cycle;Signal;HPM_P1;HPM_P2
2021/05/10 00:01:47;;;;;;;12.97;3.30;;;;;;;;;;5055322;28;20180;-79
2021/05/10 00:04:13;;;;;;;11.00;3.47;;;9.80;99.90;;;;;;5054995;28;20180;-78
2021/05/10 00:06:39;;;;;;;14.77;4.17;;;;;;;;;;5055094;28;20653;-79
2021/05/10 00:09:05;;;;;;;10.60;4.10;;;9.70;99.90;;;;;;5054107;28;20223;-78
2021/05/10 00:11:34;;;;;;;11.70;3.77;;;9.90;99.90;;;;;;5055398;28;20179;-78
2021/05/10 00:14:00;;;;;;;8.20;3.63;;;;;;;;;;5055788;28;20179;-78
2021/05/10 00:16:27;;;;;;;14.33;4.30;;;;;;;;;;5055191;28;20216;-78
2021/05/10 00:18:53;;;;;;;11.00;3.90;;;;;;;;;;5055543;28;20261;-78
2021/05/10 00:21:19;;;;;;;8.27;4.03;;;;;;;;;;5055740;28;20184;-78
2021/05/10 00:23:45;;;;;;;9.30;4.30;;;;;;;;;;5055028;28;20542;-78
2021/05/10 00:26:11;;;;;;;9.97;4.07;;;;;;;;;;5055186;28;20215;-78
2021/05/10 00:28:37;;;;;;;7.43;3.50;;;;;;;;;;5053728;28;20184;-78
2021/05/10 00:31:02;;;;;;;7.60;4.37;;;9.40;99.90;;;;;;5055096;28;20229;-78
2021/05/10 00:33:28;;;;;;;6.50;4.10;;;9.50;99.90;;;;;;5055128;28;20179;-79
2021/05/10 00:35:54;;;;;;;3.93;3.30;;;;;;;;;;5055033;28;20568;-78
2021/05/10 00:38:20;;;;;;;3.67;3.10;;;;;;;;;;5055181;28;20180;-78
2021/05/10 00:40:46;;;;;;;6.50;3.60;;;;;;;;;;5053658;28;20229;-79
2021/05/10 00:43:12;;;;;;;7.13;3.23;;;;;;;;;;5055325;28;20647;-78
2021/05/10 00:45:38;;;;;;;4.67;3.10;;;;;;;;;;5054437;28;20215;-78
2021/05/10 00:48:04;;;;;;;4.40;2.90;;;9.30;99.90;;;;;;5054695;28;20267;-79
2021/05/10 00:50:31;;;;;;;7.40;3.00;;;;;;;;;;5054578;28;20180;-80
2021/05/10 00:52:57;;;;;;;6.27;3.23;;;;;;;;;;5054541;28;20176;-79
2021/05/10 00:55:23;;;;;;;4.90;3.10;;;;;;;;;;5053540;28;20272;-79
2021/05/10 00:57:54;;;;;;;4.93;3.20;;;9.20;99.90;;;;;;5053359;28;20180;-79
2021/05/10 01:00:22;;;;;;;3.73;3.13;;;9.40;99.90;;;;;;5055206;28;20168;-80
2021/05/10 01:02:48;;;;;;;5.13;3.23;;;;;;;;;;5053369;28;20206;-79
2021/05/10 01:05:15;;;;;;;5.50;3.00;;;9.30;99.90;;;;;;5054297;28;20641;-79
2021/05/10 01:07:41;;;;;;;6.37;3.17;;;;;;;;;;5054733;28;20230;-79
2021/05/10 01:10:19;;;;;;;5.27;3.47;;;9.30;99.90;;;;;;5054701;28;20232;-78
2021/05/10 01:12:45;;;;;;;5.93;3.10;;;;;;;;;;5054112;28;20171;-78
2021/05/10 01:15:13;;;;;;;6.43;2.90;;;9.70;99.90;;;;;;5054318;28;20243;-79
2021/05/10 01:17:41;;;;;;;5.13;2.70;;;9.40;99.90;;;;;;5054137;28;20263;-79
2021/05/10 01:20:09;;;;;;;4.73;3.00;;;9.30;99.90;;;;;;5053475;28;20233;-79
2021/05/10 01:22:49;;;;;;;3.97;3.03;;;9.50;99.90;;;;;;5053726;28;20176;-79
2021/05/10 01:25:21;;;;;;;5.03;3.27;;;9.40;99.90;;;;;;5054520;28;20204;-79
2021/05/10 01:27:47;;;;;;;7.20;3.07;;;;;;;;;;5054028;28;20156;-79
2021/05/10 01:30:31;;;;;;;8.87;3.47;;;9.30;99.90;;;;;;5052903;28;20659;-79
2021/05/10 01:32:58;;;;;;;6.37;3.40;;;9.30;99.90;;;;;;5053618;28;20191;-79
2021/05/10 01:35:35;;;;;;;5.97;2.80;;;9.30;99.90;;;;;;5053531;28;20286;-79
2021/05/10 01:38:02;;;;;;;5.23;2.70;;;9.30;99.90;;;;;;5053925;28;20247;-80
2021/05/10 01:40:28;;;;;;;5.60;2.90;;;;;;;;;;5053866;28;20176;-79
2021/05/10 01:42:55;;;;;;;4.07;2.90;;;;;;;;;;5052793;28;20184;-79
2021/05/10 01:45:21;;;;;;;4.17;2.87;;;;;;;;;;5053823;28;20191;-79
2021/05/10 01:47:47;;;;;;;5.17;2.80;;;;;;;;;;5052463;28;20184;-78
2021/05/10 01:50:18;;;;;;;7.23;3.33;;;9.10;99.90;;;;;;5053480;28;20196;-79
2021/05/10 01:52:45;;;;;;;3.80;2.80;;;;;;;;;;5053257;28;20176;-79
2021/05/10 01:55:11;;;;;;;6.83;3.33;;;9.40;99.90;;;;;;5053595;28;20212;-78
2021/05/10 01:57:37;;;;;;;3.47;2.60;;;;;;;;;;5053575;28;20187;-79
2021/05/10 02:00:12;;;;;;;6.80;2.70;;;9.40;99.90;;;;;;5052248;28;20180;-78
2021/05/10 02:02:38;;;;;;;4.67;2.87;;;;;;;;;;5053573;28;20179;-78
2021/05/10 02:05:07;;;;;;;5.77;3.50;;;9.40;99.90;;;;;;5053487;28;20176;-79
2021/05/10 02:07:35;;;;;;;4.30;2.90;;;9.50;99.90;;;;;;5053459;28;20192;-78
2021/05/10 02:10:01;;;;;;;6.03;3.20;;;;;;;;;;5052824;28;20234;-78
2021/05/10 02:12:28;;;;;;;4.17;2.80;;;;;;;;;;5053585;28;20230;-79
2021/05/10 02:14:54;;;;;;;4.23;3.20;;;;;;;;;;5051440;28;20572;-79
2021/05/10 02:17:19;;;;;;;3.13;2.77;;;9.40;99.90;;;;;;5052007;28;20272;-79
2021/05/10 02:19:45;;;;;;;4.17;2.97;;;;;;;;;;5052691;28;20183;-79
2021/05/10 02:22:11;;;;;;;7.80;3.03;;;;;;;;;;5051809;28;20188;-79
2021/05/10 02:24:38;;;;;;;5.83;2.93;;;;;;;;;;5052914;28;20178;-79
2021/05/10 02:27:04;;;;;;;3.87;2.90;;;9.00;99.90;;;;;;5052547;28;20180;-79
2021/05/10 02:29:31;;;;;;;4.37;2.67;;;;;;;;;;5051969;28;20176;-79
2021/05/10 02:31:57;;;;;;;3.80;2.80;;;;;;;;;;5052706;28;20187;-78
2021/05/10 02:34:23;;;;;;;3.93;2.73;;;;;;;;;;5052856;28;20180;-78
2021/05/10 02:36:50;;;;;;;3.47;2.63;;;9.30;99.90;;;;;;5051955;28;20219;-79
2021/05/10 02:39:16;;;;;;;9.27;2.93;;;;;;;;;;5052801;28;20183;-79
2021/05/10 02:41:42;;;;;;;7.83;3.03;;;;;;;;;;5052850;28;20624;-79
2021/05/10 02:44:08;;;;;;;3.17;2.53;;;;;;;;;;5051029;28;20187;-79
2021/05/10 02:46:34;;;;;;;3.80;2.70;;;;;;;;;;5051718;28;20187;-79
2021/05/10 02:49:00;;;;;;;8.13;3.27;;;;;;;;;;5051643;28;20184;-79
2021/05/10 02:51:26;;;;;;;3.47;2.87;;;;;;;;;;5053109;28;20301;-79
2021/05/10 02:53:52;;;;;;;3.03;2.73;;;9.40;99.90;;;;;;5053047;28;20176;-79
2021/05/10 02:56:18;;;;;;;2.70;2.47;;;;;;;;;;5055896;28;20723;-79
2021/05/10 02:58:44;;;;;;;3.13;2.80;;;;;;;;;;5056709;28;20663;-79
2021/05/10 03:01:10;;;;;;;6.93;3.00;;;;;;;;;;5056670;28;20209;-80
2021/05/10 03:03:36;;;;;;;10.70;3.07;;;;;;;;;;5056501;28;20575;-79
2021/05/10 03:06:02;;;;;;;4.83;2.90;;;;;;;;;;5056796;28;20184;-80
2021/05/10 03:08:28;;;;;;;5.83;2.70;;;;;;;;;;5056565;28;20180;-80
2021/05/10 03:10:55;;;;;;;3.13;2.50;;;9.30;99.90;;;;;;5056673;28;20176;-80
2021/05/10 03:13:22;;;;;;;3.87;2.80;;;;;;;;;;5055750;28;20184;-81
2021/05/10 03:15:48;;;;;;;6.43;3.10;;;;;;;;;;5055522;28;20215;-79
2021/05/10 03:18:14;;;;;;;5.03;3.00;;;;;;;;;;5056917;28;20176;-79
2021/05/10 03:20:39;;;;;;;15.23;3.10;;;9.20;99.90;;;;;;5056403;28;20191;-79
2021/05/10 03:23:05;;;;;;;5.47;3.63;;;9.40;99.90;;;;;;5062709;28;20182;-81
2021/05/10 03:25:31;;;;;;;3.40;2.80;;;;;;;;;;5057420;28;20265;-79
2021/05/10 03:27:57;;;;;;;20.80;8.67;;;;;;;;;;5056236;28;20184;-78
2021/05/10 03:30:25;;;;;;;4.80;3.20;;;9.50;99.90;;;;;;5055274;28;20238;-79
2021/05/10 03:32:52;;;;;;;4.60;2.93;;;9.50;99.90;;;;;;5056342;28;20178;-83
2021/05/10 03:35:18;;;;;;;4.10;2.90;;;9.60;99.90;;;;;;5056060;28;20204;-79
2021/05/10 03:37:45;;;;;;;5.40;2.83;;;;;;;;;;5055099;28;20188;-80
2021/05/10 03:40:12;;;;;;;6.37;3.00;;;9.70;99.90;;;;;;5056057;28;20647;-80
2021/05/10 03:42:39;;;;;;;11.33;2.67;;;9.70;99.90;;;;;;5056168;28;20172;-79
2021/05/10 03:45:06;;;;;;;6.73;2.80;;;9.50;99.90;;;;;;5056073;28;20261;-79
2021/05/10 03:47:34;;;;;;;6.27;2.80;;;;;;;;;;5056059;28;20237;-78
2021/05/10 03:50:06;;;;;;;5.70;3.30;;;10.10;99.90;;;;;;5055881;28;20169;-79
2021/05/10 03:52:32;;;;;;;8.27;2.83;;;;;;;;;;5054828;28;20187;-79
2021/05/10 03:54:57;;;;;;;6.27;3.00;;;9.80;99.90;;;;;;5048723;28;20216;-79
2021/05/10 03:57:23;;;;;;;3.60;2.87;;;9.90;99.90;;;;;;5053678;28;20183;-79
2021/05/10 03:59:48;;;;;;;5.03;2.87;;;10.20;99.90;;;;;;5088044;28;20188;-79
2021/05/10 04:02:15;;;;;;;4.63;2.67;;;;;;;;;;5067019;28;21082;-80
2021/05/10 04:04:48;;;;;;;9.83;2.67;;;;;;;;;;5071052;28;20262;-80
2021/05/10 04:14:50;;;;;;;5.50;2.77;;;11.10;99.90;;;;;;5076724;28;20202;-80
2021/05/10 04:17:16;;;;;;;9.67;3.20;;;10.80;99.90;;;;;;5060301;28;20274;-80
2021/05/10 04:19:42;;;;;;;5.00;2.50;;;;;;;;;;5098713;28;20179;-80
2021/05/10 04:22:07;;;;;;;5.13;2.33;;;11.10;99.90;;;;;;5064999;28;20192;-80
2021/05/10 04:24:33;;;;;;;3.63;2.73;;;;;;;;;;5086551;28;20712;-80
2021/05/10 04:27:01;;;;;;;5.67;2.20;;;11.70;99.90;;;;;;5087229;28;20282;-80
2021/05/10 04:29:27;;;;;;;3.60;2.20;;;11.60;99.90;;;;;;5066128;28;20648;-80
2021/05/10 04:31:52;;;;;;;8.70;2.30;;;11.70;99.90;;;;;;5053384;28;20228;-80
2021/05/10 04:34:18;;;;;;;5.97;2.53;;;;;;;;;;5051712;28;20187;-79
2021/05/10 04:36:44;;;;;;;4.67;2.93;;;11.70;99.90;;;;;;5053015;28;20276;-80
2021/05/10 04:39:10;;;;;;;5.00;2.83;;;;;;;;;;5051651;28;20615;-81
2021/05/10 04:41:36;;;;;;;6.17;3.53;;;;;;;;;;5051859;28;20233;-80
2021/05/10 04:44:02;;;;;;;4.27;2.40;;;;;;;;;;5051627;28;20217;-83
2021/05/10 04:46:28;;;;;;;3.97;2.30;;;12.60;99.90;;;;;;5052850;28;20663;-80
2021/05/10 04:48:54;;;;;;;4.00;2.10;;;;;;;;;;5035415;28;20184;-79
2021/05/10 04:51:19;;;;;;;4.10;2.35;;;12.30;99.90;;;;;;5034418;28;20659;-80
2021/05/10 04:53:45;;;;;;;3.42;2.60;;;;;;;;;;5051538;28;20184;-79
2021/05/10 04:56:11;;;;;;;3.13;2.20;;;;;;;;;;5055366;28;20230;-80
2021/05/10 04:58:37;;;;;;;3.20;2.00;;;12.60;99.90;;;;;;5063905;28;20551;-79
2021/05/10 05:01:03;;;;;;;8.00;2.55;;;;;;;;;;5069054;28;20187;-82
2021/05/10 05:03:29;;;;;;;2.97;2.05;;;13.00;99.90;;;;;;5067672;28;20192;-80
2021/05/10 05:05:55;;;;;;;3.03;2.63;;;;;;;;;;5069339;28;20187;-80
2021/05/10 05:08:21;;;;;;;8.52;2.75;;;;;;;;;;5067810;28;20199;-81
2021/05/10 05:10:46;;;;;;;4.75;2.33;;;13.60;99.90;;;;;;5064137;28;20630;-81
2021/05/10 05:13:25;;;;;;;3.65;2.20;;;13.60;99.90;;;;;;5069027;28;20239;-80
2021/05/10 05:15:51;;;;;;;6.60;2.40;;;;;;;;;;5068017;28;20241;-80
2021/05/10 05:18:17;;;;;;;6.55;2.00;;;;;;;;;;5056325;28;20274;-81
2021/05/10 05:20:43;;;;;;;2.33;1.77;;;14.20;99.90;;;;;;5053156;28;20211;-80
2021/05/10 05:23:20;;;;;;;7.63;4.07;;;13.70;99.90;;;;;;5070483;28;20217;-80
2021/05/10 05:25:46;;;;;;;5.78;2.20;;;;;;;;;;5062890;28;20183;-80
2021/05/10 05:28:11;;;;;;;4.22;1.73;;;14.10;99.90;;;;;;5065253;28;20509;-80
2021/05/10 05:30:37;;;;;;;3.10;1.77;;;14.70;99.90;;;;;;5060283;28;20180;-80
2021/05/10 05:33:03;;;;;;;3.67;2.00;;;14.20;99.60;;;;;;5095008;28;20187;-79
2021/05/10 05:35:29;;;;;;;2.65;1.65;;;;;;;;;;5060019;28;20242;-80
2021/05/10 05:37:55;;;;;;;8.75;2.13;;;;;;;;;;5058352;28;20613;-79
2021/05/10 05:40:21;;;;;;;6.97;2.20;;;14.90;95.80;;;;;;5083809;28;20814;-80
2021/05/10 05:42:46;;;;;;;3.20;1.80;;;14.80;93.40;;;;;;5084427;28;20268;-79
2021/05/10 05:45:13;;;;;;;2.90;1.75;;;14.90;91.60;;;;;;5058952;28;20262;-80
2021/05/10 05:47:39;;;;;;;3.75;1.60;;;14.90;95.00;;;;;;5067325;28;20245;-78
2021/05/10 05:50:05;;;;;;;3.20;1.65;;;14.90;96.10;;;;;;5059807;28;20204;-80
2021/05/10 05:52:30;;;;;;;7.03;2.67;;;15.40;96.80;;;;;;5066320;28;20180;-81
2021/05/10 05:54:56;;;;;;;6.68;1.98;;;;;;;;;;5069515;28;20211;-80
2021/05/10 05:57:22;;;;;;;2.58;1.70;;;15.20;95.90;;;;;;5068742;28;20213;-79
2021/05/10 05:59:48;;;;;;;8.85;1.80;;;;;;;;;;5069408;28;20187;-80
2021/05/10 06:02:14;;;;;;;5.38;2.10;;;;;;;;;;5069762;28;20178;-79
2021/05/10 06:04:40;;;;;;;5.20;1.73;;;15.90;91.60;;;;;;5053012;28;20180;-79
2021/05/10 06:07:06;;;;;;;1.70;1.55;;;;;;;;;;5051417;28;20198;-80
2021/05/10 06:09:32;;;;;;;3.72;1.77;;;;;;;;;;5050700;28;20289;-79
2021/05/10 06:11:58;;;;;;;2.58;1.55;;;;;;;;;;5049470;28;20179;-79
2021/05/10 06:14:24;;;;;;;2.25;1.65;;;;;;;;;;5050951;28;20187;-79
2021/05/10 06:16:50;;;;;;;1.98;1.40;;;16.10;90.10;;;;;;5049371;28;20231;-80
2021/05/10 06:19:16;;;;;;;2.90;1.70;;;;;;;;;;5050316;28;20211;-80
2021/05/10 06:21:42;;;;;;;2.92;1.55;;;16.00;89.50;;;;;;5060172;28;20195;-80
2021/05/10 06:24:08;;;;;;;2.17;1.15;;;;;;;;;;5069141;28;20190;-80
2021/05/10 06:26:34;;;;;;;1.77;1.40;;;;;;;;;;5068801;28;20252;-81
2021/05/10 06:29:00;;;;;;;3.63;2.53;;;;;;;;;;5065846;28;20208;-80
2021/05/10 06:31:26;;;;;;;3.35;1.60;;;18.40;75.50;;;;;;5069108;28;20591;-81
2021/05/10 06:33:53;;;;;;;1.88;1.58;;;;;;;;;;5067396;28;20183;-80
2021/05/10 06:36:19;;;;;;;2.05;1.63;;;;;;;;;;5068609;28;20267;-80
2021/05/10 06:38:45;;;;;;;2.53;1.67;;;;;;;;;;5066482;28;20269;-80
2021/05/10 06:41:11;;;;;;;6.80;1.70;;;17.00;73.70;;;;;;5044058;28;20191;-81
2021/05/10 06:43:37;;;;;;;2.40;1.65;;;16.80;85.30;;;;;;5060255;28;20179;-82
2021/05/10 06:46:03;;;;;;;5.72;1.90;;;;;;;;;;5063175;28;20191;-80
2021/05/10 06:48:31;;;;;;;2.95;1.70;;;17.60;68.00;;;;;;5066145;28;20174;-80
2021/05/10 06:50:57;;;;;;;2.05;1.50;;;16.90;81.60;;;;;;5057590;28;20171;-80
2021/05/10 06:53:23;;;;;;;1.60;1.50;;;17.50;70.20;;;;;;5054131;28;20188;-81
2021/05/10 06:55:52;;;;;;;1.80;1.40;;;17.20;80.80;;;;;;5063320;28;20206;-79
2021/05/10 06:58:19;;;;;;;6.78;2.63;;;17.60;81.20;;;;;;5067055;28;20237;-79
2021/05/10 07:00:45;;;;;;;6.30;1.58;;;17.10;78.80;;;;;;5066855;28;20697;-79
2021/05/10 07:03:12;;;;;;;3.05;1.88;;;;;;;;;;5061444;28;21163;-79
2021/05/10 07:05:38;;;;;;;5.53;1.80;;;17.50;72.50;;;;;;5063938;28;20187;-80
2021/05/10 07:08:14;;;;;;;3.95;1.83;;;17.40;76.90;;;;;;5064588;28;20186;-80
2021/05/10 07:10:44;;;;;;;2.30;1.77;;;17.40;76.00;;;;;;5061403;28;20810;-82
2021/05/10 07:13:10;;;;;;;6.72;2.10;;;;;;;;;;5049870;28;20179;-81
2021/05/10 07:15:36;;;;;;;3.88;1.80;;;;;;;;;;5084462;28;20207;-80
2021/05/10 07:18:15;;;;;;;1.48;1.10;;;18.50;72.70;;;;;;5056272;28;20194;-81
2021/05/10 07:20:43;;;;;;;3.28;1.50;;;18.20;62.40;;;;;;5045183;28;20232;-80
2021/05/10 07:23:11;;;;;;;2.85;1.50;;;18.00;75.70;;;;;;5059321;28;20650;-81
2021/05/10 07:25:47;;;;;;;5.93;1.50;;;18.30;64.70;;;;;;5054295;28;20175;-80
2021/05/10 07:28:16;;;;;;;1.80;1.40;;;18.80;75.70;;;;;;5089672;28;20221;-80
2021/05/10 07:30:41;;;;;;;3.28;1.40;;;18.50;62.90;;;;;;5054762;28;20218;-81
2021/05/10 07:33:08;;;;;;;1.40;1.25;;;;;;;;;;5054033;28;20188;-81
2021/05/10 07:35:33;;;;;;;3.97;1.40;;;18.30;61.30;;;;;;5054402;28;20549;-81
2021/05/10 07:38:00;;;;;;;2.03;1.50;;;19.00;64.90;;;;;;5052534;28;20183;-80
2021/05/10 07:40:28;;;;;;;2.70;1.27;;;18.80;58.80;;;;;;5090134;28;20194;-82
2021/05/10 07:42:53;;;;;;;1.42;1.33;;;18.50;72.60;;;;;;5057628;28;20180;-81
2021/05/10 07:45:21;;;;;;;2.08;1.15;;;18.50;73.90;;;;;;5094065;28;20186;-79
2021/05/10 07:47:53;;;;;;;2.20;1.38;;;19.00;72.50;;;;;;5058444;28;20183;-80
2021/05/10 07:50:22;;;;;;;1.70;1.42;;;18.90;71.70;;;;;;5060692;28;20175;-80
2021/05/10 07:52:48;;;;;;;3.28;1.90;;;;;;;;;;5057823;28;20245;-80
2021/05/10 07:55:14;;;;;;;4.82;1.50;;;19.10;65.80;;;;;;5059667;28;20212;-81
2021/05/10 07:57:40;;;;;;;3.97;1.80;;;;;;;;;;5060521;28;20660;-81
2021/05/10 08:00:10;;;;;;;1.73;1.35;;;19.10;70.90;;;;;;5057117;28;20194;-81
2021/05/10 08:02:37;;;;;;;4.82;2.00;;;19.30;58.50;;;;;;5084773;28;20180;-81
2021/05/10 08:05:03;;;;;;;6.35;1.63;;;19.80;69.40;;;;;;5052356;28;20268;-81
2021/05/10 08:07:29;;;;;;;2.88;2.38;;;;;;;;;;5054157;28;20265;-83
2021/05/10 08:09:55;;;;;;;8.98;1.20;;;19.90;68.30;;;;;;5053809;28;20235;-80
2021/05/10 08:12:20;;;;;;;1.75;1.40;;;20.10;59.70;;;;;;5053673;28;20676;-80
2021/05/10 08:14:46;;;;;;;3.88;1.35;;;20.20;66.40;;;;;;5053107;28;20190;-80
2021/05/10 08:17:12;;;;;;;3.97;1.55;;;20.20;67.60;;;;;;5052603;28;20274;-81
2021/05/10 08:19:37;;;;;;;2.15;1.52;;;20.20;67.40;;;;;;5052497;28;20241;-80
2021/05/10 08:22:04;;;;;;;3.75;1.30;;;19.90;54.40;;;;;;5053358;28;20188;-80
2021/05/10 08:24:31;;;;;;;1.45;1.10;;;19.80;67.30;;;;;;5053336;28;20263;-80
2021/05/10 08:26:57;;;;;;;2.20;1.00;;;20.40;65.60;;;;;;5053541;28;20184;-80
2021/05/10 08:29:23;;;;;;;1.70;1.10;;;20.10;65.60;;;;;;5052454;28;20199;-80
2021/05/10 08:31:49;;;;;;;1.70;1.05;;;;;;;;;;5053213;28;20187;-81
2021/05/10 08:34:17;;;;;;;2.00;1.73;;;20.20;60.20;;;;;;5052797;28;20728;-81
2021/05/10 08:36:43;;;;;;;1.10;0.93;;;;;;;;;;5053194;28;20207;-81
2021/05/10 08:39:09;;;;;;;3.33;1.08;;;20.60;64.10;;;;;;5052012;28;20175;-81
2021/05/10 08:41:40;;;;;;;4.20;1.40;;;21.00;65.00;;;;;;5053062;28;20191;-81
2021/05/10 08:44:07;;;;;;;2.42;1.40;;;21.10;63.00;;;;;;5051462;28;20186;-81
2021/05/10 08:46:34;;;;;;;7.65;1.80;;;20.90;53.30;;;;;;5051451;28;20184;-82
2021/05/10 08:49:00;;;;;;;4.93;2.53;;;20.70;63.90;;;;;;5050765;28;20698;-80
2021/05/10 08:51:26;;;;;;;6.43;1.48;;;;;;;;;;5050972;28;20180;-81
2021/05/10 08:53:52;;;;;;;2.47;1.50;;;;;;;;;;5033263;28;20629;-80
2021/05/10 08:56:18;;;;;;;8.18;2.10;;;;;;;;;;5036915;28;20288;-80
2021/05/10 08:58:46;;;;;;;3.25;1.20;;;21.00;56.30;;;;;;5050958;28;20190;-79
2021/05/10 09:01:13;;;;;;;5.90;1.10;;;21.20;51.10;;;;;;5050954;28;20182;-80
2021/05/10 09:03:43;;;;;;;5.75;1.10;;;21.30;50.40;;;;;;5052281;28;20535;-80
2021/05/10 09:06:13;;;;;;;2.33;1.27;;;20.80;53.30;;;;;;5051993;28;20179;-79
2021/05/10 09:08:48;;;;;;;1.67;1.38;;;21.80;51.40;;;;;;5049632;28;20638;-80
2021/05/10 09:11:22;;;;;;;3.15;1.15;;;21.40;59.50;;;;;;5051371;28;20175;-80
2021/05/10 09:13:59;;;;;;;1.90;1.25;;;21.50;49.00;;;;;;5050758;28;20542;-80
2021/05/10 09:16:26;;;;;;;2.03;0.95;;;21.80;57.80;;;;;;5051114;28;20250;-80
2021/05/10 09:18:52;;;;;;;2.92;1.50;;;;;;;;;;5051162;28;20275;-80
2021/05/10 09:21:20;;;;;;;3.75;1.00;;;21.50;48.00;;;;;;5050302;28;20263;-81
2021/05/10 09:23:46;;;;;;;25.27;4.45;;;21.70;50.20;;;;;;5051651;28;20183;-80
2021/05/10 09:26:12;;;;;;;4.63;1.20;;;21.70;59.70;;;;;;5050982;28;20619;-82
2021/05/10 09:28:43;;;;;;;1.85;1.30;;;21.80;59.30;;;;;;5052385;28;20176;-82
2021/05/10 09:31:11;;;;;;;4.35;1.35;;;22.40;59.60;;;;;;5052445;28;20184;-81
2021/05/10 09:33:47;;;;;;;1.42;1.10;;;22.10;59.30;;;;;;5051016;28;20535;-81
2021/05/10 09:36:33;;;;;;;2.17;1.20;;;22.40;59.60;;;;;;5051740;28;20612;-81
2021/05/10 09:39:00;;;;;;;7.32;1.67;;;;;;;;;;5050897;28;20662;-81
2021/05/10 09:41:27;;;;;;;27.70;2.17;;;;;;;;;;5051114;28;20184;-81
2021/05/10 09:44:06;;;;;;;6.40;1.48;;;23.10;58.50;;;;;;5050469;28;20188;-81
2021/05/10 09:46:42;;;;;;;8.23;1.50;;;22.40;47.90;;;;;;5052120;28;20194;-81
2021/05/10 09:49:09;;;;;;;2.75;1.30;;;;;;;;;;5052003;28;20178;-81
2021/05/10 09:51:34;;;;;;;3.13;1.15;;;22.50;57.60;;;;;;5034175;28;20184;-81
2021/05/10 09:54:10;;;;;;;5.35;1.23;;;22.60;47.50;;;;;;5051715;28;20306;-81
2021/05/10 09:56:37;;;;;;;2.47;1.13;;;;;;;;;;5051974;28;20198;-80
2021/05/10 09:59:14;;;;;;;2.17;1.02;;;23.00;56.30;;;;;;5051311;28;20183;-80
2021/05/10 10:01:48;;;;;;;2.10;1.10;;;22.80;46.70;;;;;;5051952;28;20210;-81
2021/05/10 10:04:18;;;;;;;3.83;1.77;;;22.90;46.80;;;;;;5049560;28;20208;-80
2021/05/10 10:06:45;;;;;;;3.53;1.20;;;22.90;46.90;;;;;;5084073;28;20201;-80
2021/05/10 10:09:11;;;;;;;7.88;2.00;;;;;;;;;;5050188;28;20231;-80
2021/05/10 10:11:37;;;;;;;2.08;1.27;;;;;;;;;;5051414;28;20188;-82
2021/05/10 10:14:03;;;;;;;4.50;1.40;;;23.40;46.90;;;;;;5050627;28;20179;-82
2021/05/10 10:16:31;;;;;;;8.65;1.92;;;23.60;45.30;;;;;;5050856;28;20294;-82
2021/05/10 10:19:03;;;;;;;5.07;1.48;;;23.50;54.70;;;;;;5054283;28;20195;-82
2021/05/10 10:21:29;;;;;;;1.75;1.08;;;;;;;;;;5054920;28;20184;-81
2021/05/10 10:24:02;;;;;;;1.13;1.00;;;23.70;46.50;;;;;;5054019;28;20223;-83
2021/05/10 10:26:28;;;;;;;6.63;1.70;;;;;;;;;;5056715;28;20179;-82
2021/05/10 10:28:54;;;;;;;4.47;1.58;;;;;;;;;;5069064;28;20179;-82
2021/05/10 10:31:33;;;;;;;1.98;1.10;;;24.30;53.50;;;;;;5052504;28;20313;-82
2021/05/10 10:34:06;;;;;;;4.00;1.30;;;23.50;54.60;;;;;;5056809;28;20565;-80
2021/05/10 10:36:39;;;;;;;3.38;1.17;;;24.10;45.50;;;;;;5053347;28;20573;-79
2021/05/10 10:39:13;;;;;;;3.67;1.67;;;24.20;47.60;;;;;;5063686;28;20236;-81
2021/05/10 10:41:58;;;;;;;2.92;1.30;;;24.60;54.50;;;;;;5060684;28;20686;-80
2021/05/10 10:44:26;;;;;;;2.33;1.25;;;24.60;52.60;;;;;;5067761;28;20221;-82
2021/05/10 10:46:52;;;;;;;4.13;1.42;;;24.70;51.40;;;;;;5063758;28;20715;-81
2021/05/10 10:49:35;;;;;;;2.22;1.40;;;24.30;55.30;;;;;;5068121;28;20216;-81
2021/05/10 10:52:02;;;;;;;4.63;2.80;;;24.70;45.90;;;;;;5066636;28;20178;-81
2021/05/10 10:54:29;;;;;;;8.10;3.85;;;24.70;44.00;;;;;;5065485;28;20201;-81
2021/05/10 10:57:00;;;;;;;8.57;3.88;;;24.70;44.90;;;;;;5064661;28;20543;-80
2021/05/10 10:59:37;;;;;;;1.88;1.45;;;24.90;44.60;;;;;;5063541;28;20176;-81
2021/05/10 11:02:23;;;;;;;2.28;1.60;;;24.60;53.70;;;;;;5068346;28;20202;-82
2021/05/10 11:05:13;;;;;;;1.75;1.20;;;24.50;46.60;;;;;;5065325;28;20609;-82
2021/05/10 11:07:54;;;;;;;4.10;1.30;;;25.00;44.30;;;;;;5065382;28;20207;-81
2021/05/10 11:10:50;;;;;;;1.10;0.98;;;25.60;52.70;;;;;;5069412;28;20614;-82
2021/05/10 11:13:30;;;;;;;2.80;1.08;;;25.00;52.20;;;;;;5070601;28;20191;-82
2021/05/10 11:15:56;;;;;;;1.70;1.10;;;;;;;;;;5070623;28;20206;-82
2021/05/10 11:18:55;;;;;;;3.88;1.35;;;25.60;52.50;;;;;;5064054;28;20270;-81
2021/05/10 11:21:24;;;;;;;11.00;1.33;;;25.30;43.10;;;;;;5073406;28;20298;-81
2021/05/10 11:23:59;;;;;;;3.10;1.10;;;25.50;51.00;;;;;;5070088;28;20179;-82
2021/05/10 11:26:38;;;;;;;3.42;1.33;;;25.20;41.90;;;;;;5073707;28;20183;-81
2021/05/10 11:29:08;;;;;;;1.42;1.15;;;25.30;41.20;;;;;;5064210;28;20287;-81
2021/05/10 11:31:42;;;;;;;1.95;1.20;;;25.40;50.90;;;;;;5066181;28;20722;-81
2021/05/10 11:34:12;;;;;;;1.63;1.10;;;25.00;50.00;;;;;;5051772;28;20221;-82
2021/05/10 11:36:47;;;;;;;4.30;1.33;;;25.40;41.90;;;;;;5063190;28;20204;-81
2021/05/10 11:39:16;;;;;;;7.63;1.10;;;25.60;50.10;;;;;;5070953;28;20179;-81
2021/05/10 11:41:44;;;;;;;7.47;1.20;;;25.70;42.20;;;;;;5067769;28;20210;-81
2021/05/10 11:44:18;;;;;;;4.90;1.30;;;25.50;51.40;;;;;;5072361;28;20686;-81
2021/05/10 11:46:48;;;;;;;7.28;1.55;;;25.70;42.50;;;;;;5070919;28;20181;-81
2021/05/10 11:49:34;;;;;;;3.47;1.10;;;25.80;40.80;;;;;;5068321;28;20176;-82
2021/05/10 11:52:07;;;;;;;3.55;2.05;;;25.80;41.30;;;;;;5051521;28;20620;-81
2021/05/10 11:54:35;;;;;;;2.67;1.25;;;25.70;43.20;;;;;;5067540;28;20222;-81
2021/05/10 11:57:03;;;;;;;10.40;2.42;;;;;;;;;;5072282;28;20524;-81
2021/05/10 12:02:09;;;;;;;6.30;1.05;;;25.80;49.60;;;;;;5073238;28;20175;-81
2021/05/10 12:04:46;;;;;;;6.72;1.92;;;25.80;41.10;;;;;;5067730;28;20209;-82
2021/05/10 12:07:13;;;;;;;1.85;0.90;;;;;;;;;;5082014;28;20183;-81
2021/05/10 12:09:49;;;;;;;4.88;1.35;;;25.90;50.60;;;;;;5068256;28;20241;-81
2021/05/10 12:12:18;;;;;;;2.03;1.00;;;25.40;46.20;;;;;;5050286;28;20592;-82
2021/05/10 12:14:55;;;;;;;3.33;1.00;;;26.00;40.40;;;;;;5069115;28;20175;-83
2021/05/10 12:17:26;;;;;;;2.45;1.02;;;25.90;49.10;;;;;;5067036;28;20186;-81
2021/05/10 12:20:03;;;;;;;2.50;0.82;;;26.10;40.90;;;;;;5070545;28;20245;-82
2021/05/10 12:22:31;;;;;;;1.77;1.00;;;26.20;41.60;;;;;;5068133;28;20176;-82
2021/05/10 12:25:04;;;;;;;2.95;1.10;;;26.90;42.80;;;;;;5067220;28;20184;-82
2021/05/10 12:27:49;;;;;;;2.15;1.00;;;26.40;42.30;;;;;;5068019;28;20183;-82
2021/05/10 12:30:24;;;;;;;6.50;1.30;;;26.30;50.80;;;;;;5066056;28;20183;-82
2021/05/10 12:32:54;;;;;;;2.55;0.93;;;27.10;48.60;;;;;;5067964;28;20175;-82
2021/05/10 12:35:22;;;;;;;3.47;1.35;;;26.80;41.70;;;;;;5068393;28;20206;-82
2021/05/10 12:37:50;;;;;;;1.88;0.77;;;26.90;40.10;;;;;;5070513;28;20171;-82
2021/05/10 12:40:19;;;;;;;12.00;1.08;;;26.80;49.00;;;;;;5070848;28;20183;-83
2021/05/10 12:42:46;;;;;;;6.47;1.17;;;;;;;;;;5070802;28;20197;-81
2021/05/10 12:45:13;;;;;;;1.20;1.00;;;26.40;40.50;;;;;;5067118;28;20740;-82
2021/05/10 12:47:39;;;;;;;2.55;1.00;;;;;;;;;;5068817;28;20174;-82
2021/05/10 12:50:05;;;;;;;5.20;1.40;;;26.60;48.30;;;;;;5071103;28;20266;-82
2021/05/10 12:52:48;;;;;;;4.97;1.00;;;26.90;40.50;;;;;;5064274;28;20596;-81
2021/05/10 12:55:22;;;;;;;3.55;1.20;;;27.40;48.70;;;;;;5098934;28;20203;-81
2021/05/10 12:57:49;;;;;;;3.05;1.10;;;27.30;47.70;;;;;;5063169;28;20286;-82
2021/05/10 13:00:35;;;;;;;3.17;1.30;;;27.10;48.50;;;;;;5065333;28;20258;-81
2021/05/10 13:03:02;;;;;;;2.15;1.30;;;;;;;;;;5061719;28;20263;-81
2021/05/10 13:05:38;;;;;;;3.13;1.23;;;27.40;40.80;;;;;;5052318;28;20183;-81
2021/05/10 13:08:06;;;;;;;1.50;1.00;;;27.40;43.90;;;;;;5054383;28;20191;-81
2021/05/10 13:10:33;;;;;;;2.35;1.58;;;;;;;;;;5052785;28;20724;-82
2021/05/10 13:12:59;;;;;;;5.68;1.17;;;;;;;;;;5052747;28;20179;-81
2021/05/10 13:15:32;;;;;;;1.90;1.10;;;27.10;44.40;;;;;;5053144;28;20302;-80
2021/05/10 13:18:19;;;;;;;5.47;1.50;;;27.20;45.20;;;;;;5052773;28;20176;-80
2021/05/10 13:21:45;;;;;;;5.88;1.50;;;27.10;52.40;;;;;;5051480;28;20176;-82
2021/05/10 13:32:02;;;;;;;7.80;1.42;;;;;;;;;;5055879;28;20275;-82
2021/05/10 13:35:17;;;;;;;1.80;1.23;;;26.90;52.80;;;;;;5055878;28;20184;-81
2021/05/10 13:37:28;;;;;;;3.22;1.70;;;26.80;52.00;;;;;;5054847;28;20188;-81
2021/05/10 13:39:54;;;;;;;7.47;1.60;;;;;;;;;;5089534;28;20234;-81
2021/05/10 13:42:28;;;;;;;10.10;1.88;;;26.90;45.00;;;;;;5059277;28;20663;-81
2021/05/10 13:44:54;;;;;;;4.05;1.77;;;;;;;;;;5055795;28;20218;-82
2021/05/10 13:47:20;;;;;;;2.30;1.30;;;;;;;;;;5057312;28;20601;-82
2021/05/10 13:49:46;;;;;;;5.38;1.60;;;27.20;53.50;;;;;;5071816;28;20213;-81
2021/05/10 13:52:12;;;;;;;7.82;2.08;;;;;;;;;;5060863;28;20663;-82
2021/05/10 13:54:38;;;;;;;6.70;1.65;;;;;;;;;;5055615;28;20180;-81
2021/05/10 13:57:04;;;;;;;6.22;1.65;;;26.70;47.40;;;;;;5057541;28;20298;-80